^^
Your Local Weather - Clay, NY Station Historical Data
Daily Summary for February 18, 2018 Units:  English    Metric   Both
« Previous Day
Next Day »
Daily Weekly Monthly Yearly Custom
  High: Low: Average:
Temperature: 37.9 °F 25.8 °F 31.1 °F
Dew Point: 28.5 °F 20.6 °F 24.7 °F
Humidity: 91% 55% 78%
Wind Speed: 4.0mph 0.0mph 1.7mph
Wind Gust: 10.0mph - -
Wind- - WSW
Pressure: 30.42 in 29.93 in -
Precipitation: 0.07 in    
Historical Graphs
 
 
Tabular Data for February 18, 2018
Time Temperature Dew Point Pressure Wind Wind Speed Wind Gust Humidity Rainfall Rate (Hourly) solar
00:03 29.5 °F 26.7 °F 29.94 in Calm     89% 0.00 in 0 W/m2
00:09 29.5 °F 26.7 °F 29.93 in Calm     89% 0.00 in 0 W/m2
00:15 29.6 °F 26.8 °F 29.93 in Calm     89% 0.00 in 0 W/m2
00:22 29.6 °F 26.8 °F 29.93 in Calm     89% 0.00 in 0 W/m2
00:28 29.6 °F 26.8 °F 29.93 in Calm     89% 0.00 in 0 W/m2
00:33 29.6 °F 26.8 °F 29.93 in Calm     89% 0.00 in 0 W/m2
00:39 29.6 °F 26.8 °F 29.93 in Calm     89% 0.00 in 0 W/m2
00:45 29.6 °F 27.0 °F 29.93 in Calm     90% 0.00 in 0 W/m2
00:52 29.6 °F 27.0 °F 29.93 in Calm     90% 0.00 in 0 W/m2
00:58 29.6 °F 27.0 °F 29.93 in Calm     90% 0.00 in 0 W/m2
01:04 29.6 °F 27.0 °F 29.93 in Calm     90% 0.00 in 0 W/m2
01:10 29.7 °F 27.1 °F 29.93 in Calm     90% 0.00 in 0 W/m2
01:16 29.7 °F 27.1 °F 29.93 in Calm   1.0 mph 90% 0.00 in 0 W/m2
01:22 29.7 °F 27.1 °F 29.93 in Calm     90% 0.00 in 0 W/m2
01:28 29.8 °F 27.2 °F 29.94 in SW 1.0 mph 1.0 mph 90% 0.00 in 0 W/m2
01:34 29.8 °F 27.2 °F 29.95 in West 1.0 mph 1.0 mph 90% 0.00 in 0 W/m2
01:40 29.8 °F 27.2 °F 29.95 in Calm   1.0 mph 90% 0.00 in 0 W/m2
01:46 29.8 °F 27.2 °F 29.95 in WSW 1.0 mph 1.0 mph 90% 0.00 in 0 W/m2
01:52 29.8 °F 27.5 °F 29.95 in West 1.0 mph 2.0 mph 91% 0.00 in 0 W/m2
01:58 29.8 °F 27.5 °F 29.96 in West 1.0 mph 3.0 mph 91% 0.00 in 0 W/m2
02:04 29.7 °F 27.4 °F 29.96 in WSW 1.0 mph 3.0 mph 91% 0.00 in 0 W/m2
02:10 29.7 °F 27.4 °F 29.97 in West 2.0 mph 2.0 mph 91% 0.00 in 0 W/m2
02:16 29.6 °F 27.3 °F 29.98 in WNW 3.0 mph 3.0 mph 91% 0.00 in 0 W/m2
02:22 29.4 °F 27.1 °F 29.98 in WNW 3.0 mph 4.0 mph 91% 0.00 in 0 W/m2
02:28 29.2 °F 26.9 °F 29.98 in West 3.0 mph 4.0 mph 91% 0.00 in 0 W/m2
02:34 28.9 °F 26.6 °F 29.99 in NW 2.0 mph 5.0 mph 91% 0.00 in 0 W/m2
02:40 28.9 °F 26.6 °F 29.99 in NW 2.0 mph 2.0 mph 91% 0.00 in 0 W/m2
02:46 28.9 °F 26.6 °F 30.00 in WNW 2.0 mph 2.0 mph 91% 0.00 in 0 W/m2
02:52 28.8 °F 26.5 °F 30.00 in NW 2.0 mph 3.0 mph 91% 0.00 in 0 W/m2
02:58 28.7 °F 26.4 °F 30.00 in West 2.0 mph 3.0 mph 91% 0.00 in 0 W/m2
03:04 28.7 °F 26.4 °F 30.00 in West 2.0 mph 3.0 mph 91% 0.00 in 0 W/m2
03:10 28.6 °F 26.3 °F 30.00 in West 1.0 mph 1.0 mph 91% 0.00 in 0 W/m2
03:16 28.5 °F 26.2 °F 30.01 in WSW 1.0 mph 2.0 mph 91% 0.00 in 0 W/m2
03:22 28.4 °F 26.1 °F 30.01 in WSW 2.0 mph 2.0 mph 91% 0.00 in 0 W/m2
03:28 28.3 °F 26.0 °F 30.01 in NW 2.0 mph 5.0 mph 91% 0.00 in 0 W/m2
03:34 28.3 °F 26.0 °F 30.01 in WNW 2.0 mph 2.0 mph 91% 0.00 in 0 W/m2
03:42 28.2 °F 25.9 °F 30.02 in WNW 1.0 mph 1.0 mph 91% 0.00 in 0 W/m2
03:48 28.1 °F 25.8 °F 30.01 in WNW 1.0 mph 1.0 mph 91% 0.00 in 0 W/m2
03:54 28.1 °F 25.8 °F 30.02 in West 1.0 mph 2.0 mph 91% 0.00 in 0 W/m2
04:00 28.2 °F 25.6 °F 30.03 in West 1.0 mph 2.0 mph 90% 0.00 in 0 W/m2
04:06 28.2 °F 25.6 °F 30.04 in West 1.0 mph 2.0 mph 90% 0.00 in 0 W/m2
04:18 28.2 °F 25.6 °F 30.05 in West 1.0 mph 3.0 mph 90% 0.00 in 0 W/m2
04:24 28.2 °F 25.6 °F 30.06 in West 1.0 mph 1.0 mph 90% 0.00 in 0 W/m2
04:30 28.2 °F 25.6 °F 30.06 in West 1.0 mph 2.0 mph 90% 0.00 in 0 W/m2
04:36 28.3 °F 25.7 °F 30.06 in WSW 1.0 mph 2.0 mph 90% 0.00 in 0 W/m2
04:42 28.3 °F 25.7 °F 30.06 in WSW 1.0 mph 3.0 mph 90% 0.00 in 0 W/m2
04:48 28.3 °F 25.7 °F 30.07 in WSW 1.0 mph 3.0 mph 90% 0.00 in 0 W/m2
04:54 28.4 °F 25.8 °F 30.07 in WSW 1.0 mph 4.0 mph 90% 0.00 in 0 W/m2
05:00 28.4 °F 25.8 °F 30.08 in WSW 1.0 mph 2.0 mph 90% 0.00 in 0 W/m2
05:06 28.3 °F 25.5 °F 30.09 in WSW 1.0 mph 2.0 mph 89% 0.00 in 0 W/m2
05:12 28.2 °F 25.4 °F 30.09 in WSW 1.0 mph 1.0 mph 89% 0.00 in 0 W/m2
05:18 28.2 °F 25.4 °F 30.09 in WSW 2.0 mph 3.0 mph 89% 0.00 in 0 W/m2
05:24 28.1 °F 25.3 °F 30.10 in WSW 2.0 mph 2.0 mph 89% 0.00 in 0 W/m2
05:30 27.9 °F 25.1 °F 30.10 in WSW 1.0 mph 1.0 mph 89% 0.00 in 0 W/m2
05:36 27.6 °F 24.8 °F 30.11 in WSW 1.0 mph 3.0 mph 89% 0.00 in 0 W/m2
05:42 27.6 °F 24.8 °F 30.12 in WSW 1.0 mph 1.0 mph 89% 0.00 in 0 W/m2
05:48 27.7 °F 24.9 °F 30.12 in WSW 1.0 mph 2.0 mph 89% 0.00 in 0 W/m2
05:54 28.0 °F 25.2 °F 30.12 in SW 2.0 mph 3.0 mph 89% 0.00 in 0 W/m2
06:00 28.1 °F 25.3 °F 30.12 in WSW 2.0 mph 2.0 mph 89% 0.00 in 0 W/m2
06:06 28.2 °F 25.4 °F 30.13 in WSW 2.0 mph 7.0 mph 89% 0.00 in 0 W/m2
06:12 28.5 °F 25.4 °F 30.13 in West 3.0 mph 6.0 mph 88% 0.00 in 0 W/m2
06:18 28.7 °F 25.6 °F 30.14 in WSW 3.0 mph 6.0 mph 88% 0.00 in 0 W/m2
06:24 28.7 °F 25.6 °F 30.14 in WSW 3.0 mph 3.0 mph 88% 0.00 in 0 W/m2
06:30 28.7 °F 25.6 °F 30.15 in West 2.0 mph 2.0 mph 88% 0.00 in 0 W/m2
06:36 28.7 °F 25.6 °F 30.16 in SW 2.0 mph 3.0 mph 88% 0.00 in 0 W/m2
06:42 28.8 °F 25.7 °F 30.16 in SW 2.0 mph 4.0 mph 88% 0.00 in 0 W/m2
06:48 28.8 °F 25.7 °F 30.15 in SW 2.0 mph 4.0 mph 88% 0.00 in 0 W/m2
06:54 28.8 °F 25.4 °F 30.15 in WSW 2.0 mph 2.0 mph 87% 0.00 in 0 W/m2
07:00 28.7 °F 25.3 °F 30.16 in WSW 1.0 mph 5.0 mph 87% 0.00 in 0 W/m2
07:06 28.8 °F 25.4 °F 30.17 in WSW 1.0 mph 5.0 mph 87% 0.00 in 0 W/m2
07:12 28.9 °F 25.5 °F 30.18 in SSW 2.0 mph 2.0 mph 87% 0.00 in 0 W/m2
07:18 28.9 °F 25.5 °F 30.20 in SW 3.0 mph 4.0 mph 87% 0.00 in 0 W/m2
07:24 29.0 °F 25.6 °F 30.20 in West 3.0 mph 5.0 mph 87% 0.00 in 0 W/m2
07:30 29.0 °F 25.6 °F 30.21 in West 3.0 mph 3.0 mph 87% 0.00 in 0 W/m2
07:36 29.0 °F 25.6 °F 30.21 in WSW 3.0 mph 4.0 mph 87% 0.00 in 5 W/m2
07:42 29.0 °F 25.6 °F 30.22 in WSW 3.0 mph 3.0 mph 87% 0.00 in 9 W/m2
07:48 29.1 °F 25.4 °F 30.22 in SSW 3.0 mph 4.0 mph 86% 0.00 in 11 W/m2
07:54 29.1 °F 25.4 °F 30.23 in WSW 3.0 mph 3.0 mph 86% 0.00 in 9 W/m2
08:00 29.2 °F 25.5 °F 30.23 in West 3.0 mph 3.0 mph 86% 0.00 in 7 W/m2
08:06 29.2 °F 25.5 °F 30.23 in WSW 2.0 mph 4.0 mph 86% 0.00 in 5 W/m2
08:12 29.3 °F 25.6 °F 30.24 in WNW 3.0 mph 3.0 mph 86% 0.00 in 9 W/m2
08:18 29.4 °F 25.7 °F 30.24 in WSW 3.0 mph 3.0 mph 86% 0.00 in 11 W/m2
08:24 29.5 °F 25.8 °F 30.26 in WSW 3.0 mph 4.0 mph 86% 0.00 in 12 W/m2
08:30 29.6 °F 25.9 °F 30.26 in WSW 2.0 mph 2.0 mph 86% 0.00 in 19 W/m2
08:36 29.8 °F 25.8 °F 30.27 in West 3.0 mph 6.0 mph 85% 0.00 in 30 W/m2
08:42 29.9 °F 25.9 °F 30.27 in WSW 3.0 mph 4.0 mph 85% 0.00 in 47 W/m2
08:48 30.1 °F 26.1 °F 30.27 in NW 3.0 mph 4.0 mph 85% 0.00 in 65 W/m2
08:54 30.3 °F 26.3 °F 30.26 in WNW 4.0 mph 6.0 mph 85% 0.00 in 47 W/m2
09:00 30.5 °F 26.2 °F 30.26 in WNW 3.0 mph 3.0 mph 84% 0.00 in 58 W/m2
09:06 30.7 °F 26.4 °F 30.26 in WNW 2.0 mph 3.0 mph 84% 0.00 in 67 W/m2
09:12 31.0 °F 26.4 °F 30.26 in NW 2.0 mph 3.0 mph 83% 0.00 in 107 W/m2
09:18 31.2 °F 26.3 °F 30.26 in NW 2.0 mph 3.0 mph 82% 0.00 in 74 W/m2
09:24 31.2 °F 26.3 °F 30.26 in WSW 3.0 mph 3.0 mph 82% 0.00 in 58 W/m2
09:30 31.2 °F 26.3 °F 30.26 in West 3.0 mph 3.0 mph 82% 0.00 in 54 W/m2
09:36 31.2 °F 26.3 °F 30.26 in West 2.0 mph 3.0 mph 82% 0.00 in 54 W/m2
09:42 31.3 °F 26.4 °F 30.27 in WSW 1.0 mph 2.0 mph 82% 0.00 in 54 W/m2
09:48 31.4 °F 26.5 °F 30.27 in WNW 1.0 mph 3.0 mph 82% 0.00 in 58 W/m2
09:54 31.4 °F 26.2 °F 30.27 in WSW 2.0 mph 4.0 mph 81% 0.00 in 60 W/m2
10:00 31.4 °F 26.2 °F 30.27 in WNW 2.0 mph 3.0 mph 81% 0.00 in 49 W/m2
10:06 31.4 °F 26.5 °F 30.28 in West 2.0 mph 4.0 mph 82% 0.00 in 46 W/m2
10:12 31.4 °F 26.2 °F 30.28 in WNW 3.0 mph 4.0 mph 81% 0.00 in 47 W/m2
10:18 31.4 °F 26.5 °F 30.28 in West 3.0 mph 4.0 mph 82% 0.00 in 56 W/m2
10:24 31.5 °F 26.6 °F 30.28 in WSW 3.0 mph 3.0 mph 82% 0.00 in 72 W/m2
10:30 31.6 °F 26.7 °F 30.28 in WNW 3.0 mph 3.0 mph 82% 0.00 in 74 W/m2
10:36 31.8 °F 26.6 °F 30.28 in WNW 3.0 mph 4.0 mph 81% 0.00 in 72 W/m2
10:42 32.0 °F 26.8 °F 30.28 in West 2.0 mph 2.0 mph 81% 0.00 in 70 W/m2
10:48 32.1 °F 26.6 °F 30.28 in WNW 2.0 mph 3.0 mph 80% 0.00 in 60 W/m2
10:54 32.2 °F 26.7 °F 30.28 in WNW 2.0 mph 2.0 mph 80% 0.00 in 51 W/m2
11:00 32.2 °F 26.4 °F 30.28 in West 2.0 mph 2.0 mph 79% 0.00 in 58 W/m2
11:06 32.3 °F 26.5 °F 30.28 in WNW 3.0 mph 5.0 mph 79% 0.00 in 56 W/m2
11:12 32.3 °F 26.5 °F 30.29 in NW 3.0 mph 4.0 mph 79% 0.00 in 60 W/m2
11:18 32.3 °F 26.5 °F 30.29 in WNW 3.0 mph 5.0 mph 79% 0.00 in 65 W/m2
11:24 32.4 °F 26.6 °F 30.29 in West 3.0 mph 4.0 mph 79% 0.00 in 84 W/m2
11:30 32.6 °F 26.8 °F 30.29 in WNW 3.0 mph 3.0 mph 79% 0.00 in 84 W/m2
11:36 32.7 °F 26.9 °F 30.30 in WNW 2.0 mph 3.0 mph 79% 0.00 in 83 W/m2
11:42 32.9 °F 26.8 °F 30.31 in WNW 1.0 mph 2.0 mph 78% 0.00 in 90 W/m2
11:48 33.0 °F 26.9 °F 30.31 in WNW 2.0 mph 4.0 mph 78% 0.00 in 121 W/m2
11:54 33.4 °F 27.0 °F 30.31 in WSW 3.0 mph 3.0 mph 77% 0.00 in 204 W/m2
12:00 33.9 °F 26.8 °F 30.31 in WNW 2.0 mph 2.0 mph 75% 0.04 in 243 W/m2
12:06 34.0 °F 26.9 °F 30.31 in WSW 2.0 mph 4.0 mph 75% 0.04 in 225 W/m2
12:12 33.9 °F 26.8 °F 30.32 in West 3.0 mph 6.0 mph 75% 0.04 in 243 W/m2
12:18 33.9 °F 26.8 °F 30.32 in WSW 4.0 mph 6.0 mph 75% 0.00 in 230 W/m2
12:24 34.0 °F 26.6 °F 30.32 in WSW 4.0 mph 5.0 mph 74% 0.00 in 246 W/m2
12:30 34.1 °F 26.7 °F 30.32 in WSW 3.0 mph 3.0 mph 74% 0.00 in 204 W/m2
12:36 34.0 °F 26.6 °F 30.32 in WSW 3.0 mph 4.0 mph 74% 0.00 in 179 W/m2
12:42 36.1 °F 27.9 °F 30.31 in WSW 3.0 mph 6.0 mph 72% 0.00 in 719 W/m2
12:48 36.7 °F 28.5 °F 30.31 in WSW 2.0 mph 6.0 mph 72% 0.00 in 599 W/m2
12:54 36.3 °F 27.4 °F 30.31 in WSW 3.0 mph 7.0 mph 70% 0.00 in 429 W/m2
13:00 35.5 °F 27.0 °F 30.31 in WSW 4.0 mph 4.0 mph 71% 0.00 in 345 W/m2
13:06 35.3 °F 26.8 °F 30.31 in SW 3.0 mph 5.0 mph 71% 0.00 in 192 W/m2
13:12 36.4 °F 27.9 °F 30.31 in WSW 3.0 mph 6.0 mph 71% 0.00 in 610 W/m2
13:18 37.4 °F 27.8 °F 30.31 in SW 3.0 mph 6.0 mph 68% 0.00 in 599 W/m2
13:24 36.5 °F 26.6 °F 30.31 in West 4.0 mph 5.0 mph 67% 0.00 in 306 W/m2
13:30 36.4 °F 26.8 °F 30.31 in WSW 4.0 mph 9.0 mph 68% 0.00 in 450 W/m2
13:36 37.0 °F 26.3 °F 30.31 in West 4.0 mph 10.0 mph 65% 0.00 in 320 W/m2
13:42 36.5 °F 25.5 °F 30.31 in NW 4.0 mph 6.0 mph 64% 0.00 in 327 W/m2
13:48 36.5 °F 25.5 °F 30.31 in NW 4.0 mph 6.0 mph 64% 0.00 in 352 W/m2
13:54 36.6 °F 25.6 °F 30.32 in WNW 4.0 mph 5.0 mph 64% 0.00 in 236 W/m2
14:00 36.4 °F 25.4 °F 30.32 in WNW 3.0 mph 3.0 mph 64% 0.00 in 178 W/m2
14:06 36.4 °F 25.7 °F 30.32 in WNW 2.0 mph 3.0 mph 65% 0.00 in 250 W/m2
14:12 36.8 °F 25.8 °F 30.32 in WSW 3.0 mph 3.0 mph 64% 0.00 in 357 W/m2
14:18 37.0 °F 25.9 °F 30.32 in West 3.0 mph 4.0 mph 64% 0.00 in 243 W/m2
14:24 37.0 °F 25.6 °F 30.33 in WNW 3.0 mph 4.0 mph 63% 0.00 in 302 W/m2
14:30 37.3 °F 24.7 °F 30.32 in WSW 3.0 mph 5.0 mph 60% 0.00 in 598 W/m2
14:36 37.4 °F 23.5 °F 30.32 in SW 4.0 mph 5.0 mph 57% 0.00 in 253 W/m2
14:42 37.2 °F 23.8 °F 30.32 in WNW 3.0 mph 5.0 mph 58% 0.00 in 174 W/m2
14:48 37.2 °F 22.9 °F 30.32 in NW 3.0 mph 5.0 mph 56% 0.00 in 165 W/m2
14:54 36.9 °F 23.1 °F 30.33 in WNW 3.0 mph 5.0 mph 57% 0.00 in 155 W/m2
15:00 36.8 °F 23.8 °F 30.33 in SW 3.0 mph 3.0 mph 59% 0.00 in 155 W/m2
15:06 36.9 °F 23.5 °F 30.33 in WSW 2.0 mph 5.0 mph 58% 0.00 in 149 W/m2
15:12 36.7 °F 23.7 °F 30.33 in SW 3.0 mph 5.0 mph 59% 0.00 in 144 W/m2
15:18 36.6 °F 22.4 °F 30.33 in SW 3.0 mph 5.0 mph 56% 0.00 in 148 W/m2
15:24 36.6 °F 23.2 °F 30.33 in WNW 3.0 mph 3.0 mph 58% 0.00 in 127 W/m2
15:30 36.7 °F 22.5 °F 30.33 in West 2.0 mph 2.0 mph 56% 0.00 in 139 W/m2
15:36 36.9 °F 23.1 °F 30.33 in West 2.0 mph 2.0 mph 57% 0.00 in 134 W/m2
15:42 36.9 °F 22.7 °F 30.33 in SW 2.0 mph 3.0 mph 56% 0.00 in 141 W/m2
15:48 36.9 °F 22.7 °F 30.33 in SW 2.0 mph 4.0 mph 56% 0.00 in 107 W/m2
15:54 36.9 °F 22.2 °F 30.33 in West 2.0 mph 3.0 mph 55% 0.00 in 100 W/m2
16:00 36.9 °F 22.7 °F 30.33 in WSW 2.0 mph 2.0 mph 56% 0.00 in 241 W/m2
16:06 37.3 °F 23.0 °F 30.33 in SW 3.0 mph 4.0 mph 56% 0.00 in 250 W/m2
16:12 37.9 °F 23.2 °F 30.34 in West 2.0 mph 4.0 mph 55% 0.00 in 237 W/m2
16:18 37.6 °F 23.3 °F 30.34 in WSW 3.0 mph 4.0 mph 56% 0.00 in 178 W/m2
16:24 37.2 °F 23.4 °F 30.35 in South 3.0 mph 7.0 mph 57% 0.00 in 100 W/m2
16:30 37.0 °F 24.0 °F 30.35 in West 3.0 mph 3.0 mph 59% 0.00 in 84 W/m2
16:36 36.9 °F 23.5 °F 30.35 in WNW 3.0 mph 4.0 mph 58% 0.00 in 88 W/m2
16:42 36.6 °F 23.2 °F 30.36 in SW 4.0 mph 5.0 mph 58% 0.00 in 70 W/m2
16:48 36.4 °F 23.4 °F 30.36 in WSW 3.0 mph 5.0 mph 59% 0.00 in 58 W/m2
16:54 36.2 °F 23.6 °F 30.36 in SW 2.0 mph 4.0 mph 60% 0.00 in 44 W/m2
17:00 35.8 °F 23.3 °F 30.36 in SW 1.0 mph 1.0 mph 60% 0.00 in 32 W/m2
17:06 35.5 °F 23.4 °F 30.37 in SW 1.0 mph 3.0 mph 61% 0.00 in 23 W/m2
17:12 35.3 °F 23.6 °F 30.37 in SW 1.0 mph 2.0 mph 62% 0.00 in 19 W/m2
17:18 35.2 °F 23.5 °F 30.37 in Calm   2.0 mph 62% 0.00 in 14 W/m2
17:24 35.1 °F 23.4 °F 30.37 in Calm   2.0 mph 62% 0.00 in 11 W/m2
17:30 35.1 °F 23.8 °F 30.38 in Calm     63% 0.00 in 7 W/m2
17:36 35.1 °F 23.8 °F 30.38 in SW 1.0 mph 2.0 mph 63% 0.00 in 0 W/m2
17:42 35.0 °F 23.7 °F 30.38 in SW 1.0 mph 1.0 mph 63% 0.00 in 0 W/m2
17:48 35.1 °F 23.8 °F 30.38 in SW 1.0 mph 1.0 mph 63% 0.00 in 0 W/m2
17:54 35.1 °F 23.8 °F 30.40 in SW 1.0 mph 3.0 mph 63% 0.00 in 0 W/m2
18:00 35.1 °F 23.8 °F 30.40 in SW 1.0 mph 1.0 mph 63% 0.00 in 0 W/m2
18:06 35.0 °F 23.7 °F 30.40 in SW 1.0 mph 2.0 mph 63% 0.00 in 0 W/m2
18:12 34.7 °F 23.4 °F 30.41 in SW 1.0 mph 1.0 mph 63% 0.00 in 0 W/m2
18:18 34.5 °F 23.2 °F 30.41 in Calm   1.0 mph 63% 0.00 in 0 W/m2
18:24 34.3 °F 23.0 °F 30.41 in Calm     63% 0.00 in 0 W/m2
18:30 33.9 °F 22.6 °F 30.41 in Calm     63% 0.00 in 0 W/m2
18:36 33.3 °F 22.8 °F 30.41 in Calm     65% 0.00 in 0 W/m2
18:42 32.6 °F 22.5 °F 30.41 in Calm     66% 0.00 in 0 W/m2
18:48 31.6 °F 22.2 °F 30.42 in Calm     68% 0.00 in 0 W/m2
18:54 31.2 °F 22.2 °F 30.41 in Calm     69% 0.00 in 0 W/m2
19:00 30.4 °F 21.8 °F 30.42 in Calm     70% 0.00 in 0 W/m2
19:06 29.9 °F 21.6 °F 30.42 in Calm     71% 0.00 in 0 W/m2
19:12 29.3 °F 21.4 °F 30.42 in Calm     72% 0.00 in 0 W/m2
19:18 29.0 °F 21.4 °F 30.42 in Calm     73% 0.00 in 0 W/m2
19:24 28.7 °F 21.1 °F 30.42 in Calm     73% 0.00 in 0 W/m2
19:30 28.4 °F 21.2 °F 30.42 in Calm     74% 0.00 in 0 W/m2
19:36 28.2 °F 21.3 °F 30.42 in Calm     75% 0.00 in 0 W/m2
19:42 28.0 °F 21.4 °F 30.41 in Calm     76% 0.00 in 0 W/m2
19:48 27.7 °F 21.1 °F 30.41 in Calm     76% 0.00 in 0 W/m2
19:56 27.5 °F 21.2 °F 30.41 in Calm     77% 0.00 in 0 W/m2
20:02 27.2 °F 21.2 °F 30.41 in Calm     78% 0.00 in 0 W/m2
20:08 26.9 °F 21.0 °F 30.40 in Calm     78% 0.00 in 0 W/m2
20:14 26.7 °F 21.1 °F 30.40 in Calm     79% 0.00 in 0 W/m2
20:20 26.5 °F 21.2 °F 30.40 in Calm     80% 0.00 in 0 W/m2
20:26 26.3 °F 21.0 °F 30.40 in Calm     80% 0.00 in 0 W/m2
20:32 26.2 °F 21.2 °F 30.40 in Calm     81% 0.00 in 0 W/m2
20:38 26.1 °F 21.1 °F 30.40 in Calm     81% 0.00 in 0 W/m2
20:44 26.0 °F 21.0 °F 30.40 in Calm     81% 0.00 in 0 W/m2
20:50 25.9 °F 21.2 °F 30.40 in Calm     82% 0.00 in 0 W/m2
20:56 25.9 °F 21.2 °F 30.40 in Calm     82% 0.00 in 0 W/m2
21:02 25.8 °F 21.1 °F 30.40 in Calm     82% 0.00 in 0 W/m2
21:08 25.8 °F 21.1 °F 30.40 in Calm     82% 0.00 in 0 W/m2
21:14 25.8 °F 21.1 °F 30.39 in Calm     82% 0.00 in 0 W/m2
21:20 26.0 °F 21.5 °F 30.39 in Calm     83% 0.00 in 0 W/m2
21:26 26.1 °F 21.4 °F 30.38 in SW 1.0 mph 1.0 mph 82% 0.00 in 0 W/m2
21:32 27.0 °F 22.2 °F 30.38 in SSE 1.0 mph 2.0 mph 82% 0.00 in 0 W/m2
21:38 27.8 °F 22.4 °F 30.38 in SSE 2.0 mph 4.0 mph 80% 0.00 in 0 W/m2
21:44 28.2 °F 22.5 °F 30.38 in SSE 2.0 mph 4.0 mph 79% 0.00 in 0 W/m2
21:50 28.6 °F 22.3 °F 30.38 in SSE 2.0 mph 3.0 mph 77% 0.00 in 0 W/m2
21:56 29.0 °F 22.1 °F 30.38 in SE 2.0 mph 3.0 mph 75% 0.00 in 0 W/m2
22:02 29.0 °F 21.7 °F 30.38 in SE 1.0 mph 2.0 mph 74% 0.00 in 0 W/m2
22:08 29.1 °F 21.8 °F 30.38 in SSE 2.0 mph 3.0 mph 74% 0.00 in 0 W/m2
22:14 29.2 °F 21.6 °F 30.37 in SSE 2.0 mph 3.0 mph 73% 0.00 in 0 W/m2
22:20 29.3 °F 21.7 °F 30.37 in SE 2.0 mph 3.0 mph 73% 0.00 in 0 W/m2
22:26 29.2 °F 21.3 °F 30.37 in SE 2.0 mph 3.0 mph 72% 0.00 in 0 W/m2
22:32 29.1 °F 21.2 °F 30.37 in SSE 1.0 mph 3.0 mph 72% 0.00 in 0 W/m2
22:38 29.0 °F 21.1 °F 30.37 in SSE 1.0 mph 3.0 mph 72% 0.00 in 0 W/m2
22:44 28.8 °F 21.2 °F 30.37 in SSE 1.0 mph 1.0 mph 73% 0.00 in 0 W/m2
22:50 28.2 °F 20.7 °F 30.37 in Calm     73% 0.00 in 0 W/m2
22:56 27.5 °F 20.6 °F 30.36 in Calm   3.0 mph 75% 0.00 in 0 W/m2
23:02 27.2 °F 20.6 °F 30.36 in Calm     76% 0.00 in 0 W/m2
23:08 27.1 °F 20.8 °F 30.35 in Calm     77% 0.00 in 0 W/m2
23:14 27.3 °F 21.0 °F 30.35 in ESE 1.0 mph 1.0 mph 77% 0.00 in 0 W/m2
23:20 27.7 °F 21.1 °F 30.34 in ESE 1.0 mph 1.0 mph 76% 0.00 in 0 W/m2
23:26 28.1 °F 21.2 °F 30.35 in East 1.0 mph 1.0 mph 75% 0.00 in 0 W/m2
23:32 28.2 °F 21.0 °F 30.34 in East 1.0 mph 1.0 mph 74% 0.00 in 0 W/m2
23:38 28.2 °F 21.0 °F 30.34 in ESE 1.0 mph 4.0 mph 74% 0.00 in 0 W/m2
23:44 28.4 °F 21.2 °F 30.33 in ESE 1.0 mph 2.0 mph 74% 0.00 in 0 W/m2
23:50 28.5 °F 21.3 °F 30.33 in SE 2.0 mph 2.0 mph 74% 0.00 in 0 W/m2
23:56 28.7 °F 21.1 °F 30.33 in East 2.0 mph 2.0 mph 73% 0.00 in 0 W/m2
Country Meadow, Clay, NY, USA
Compliments of Weather Underground - 2 mb